sensor_id;sensor_type;location;lat;lon;timestamp;temperature;humidity
21522;DHT22;10922;45.572;10.002;2023-02-04T00:00:55;8.60;99.90
21522;DHT22;10922;45.572;10.002;2023-02-04T00:03:20;8.90;99.90
21522;DHT22;10922;45.572;10.002;2023-02-04T00:05:46;9.00;1.00
21522;DHT22;10922;45.572;10.002;2023-02-04T00:08:12;9.30;1.00
21522;DHT22;10922;45.572;10.002;2023-02-04T00:10:37;9.30;1.00
21522;DHT22;10922;45.572;10.002;2023-02-04T00:13:09;9.40;1.00
21522;DHT22;10922;45.572;10.002;2023-02-04T00:15:35;9.50;1.00
21522;DHT22;10922;45.572;10.002;2023-02-04T00:18:01;9.50;1.00
21522;DHT22;10922;45.572;10.002;2023-02-04T00:20:27;9.70;1.00
21522;DHT22;10922;45.572;10.002;2023-02-04T00:22:53;9.50;1.00
21522;DHT22;10922;45.572;10.002;2023-02-04T00:25:19;9.30;1.00
21522;DHT22;10922;45.572;10.002;2023-02-04T00:27:44;9.20;1.00
21522;DHT22;10922;45.572;10.002;2023-02-04T00:30:11;9.30;1.00
21522;DHT22;10922;45.572;10.002;2023-02-04T00:32:36;9.30;1.00
21522;DHT22;10922;45.572;10.002;2023-02-04T00:35:02;9.40;1.00
21522;DHT22;10922;45.572;10.002;2023-02-04T00:37:30;9.70;1.00
21522;DHT22;10922;45.572;10.002;2023-02-04T00:39:55;9.60;1.00
21522;DHT22;10922;45.572;10.002;2023-02-04T00:42:21;9.80;1.00
21522;DHT22;10922;45.572;10.002;2023-02-04T00:44:47;9.70;1.00
21522;DHT22;10922;45.572;10.002;2023-02-04T00:47:13;9.90;1.00
21522;DHT22;10922;45.572;10.002;2023-02-04T00:49:38;9.90;1.00
21522;DHT22;10922;45.572;10.002;2023-02-04T00:52:04;9.60;1.00
21522;DHT22;10922;45.572;10.002;2023-02-04T00:54:30;9.80;1.00
21522;DHT22;10922;45.572;10.002;2023-02-04T00:56:57;9.90;1.00
21522;DHT22;10922;45.572;10.002;2023-02-04T00:59:22;9.60;1.00
21522;DHT22;10922;45.572;10.002;2023-02-04T01:01:48;9.50;1.00
21522;DHT22;10922;45.572;10.002;2023-02-04T01:04:14;9.60;1.00
21522;DHT22;10922;45.572;10.002;2023-02-04T01:06:39;9.70;1.00
21522;DHT22;10922;45.572;10.002;2023-02-04T01:09:05;9.50;1.00
21522;DHT22;10922;45.572;10.002;2023-02-04T01:11:31;9.40;1.00
21522;DHT22;10922;45.572;10.002;2023-02-04T01:13:57;9.30;1.00
21522;DHT22;10922;45.572;10.002;2023-02-04T01:16:23;8.70;1.00
21522;DHT22;10922;45.572;10.002;2023-02-04T01:18:49;9.00;1.00
21522;DHT22;10922;45.572;10.002;2023-02-04T01:21:14;8.80;1.00
21522;DHT22;10922;45.572;10.002;2023-02-04T01:23:40;8.80;1.00
21522;DHT22;10922;45.572;10.002;2023-02-04T01:26:06;8.40;1.00
21522;DHT22;10922;45.572;10.002;2023-02-04T01:28:31;8.40;1.00
21522;DHT22;10922;45.572;10.002;2023-02-04T01:30:57;8.50;1.00
21522;DHT22;10922;45.572;10.002;2023-02-04T01:33:23;8.60;1.00
21522;DHT22;10922;45.572;10.002;2023-02-04T01:35:48;8.30;1.00
21522;DHT22;10922;45.572;10.002;2023-02-04T01:38:14;8.40;1.00
21522;DHT22;10922;45.572;10.002;2023-02-04T01:40:41;8.40;1.00
21522;DHT22;10922;45.572;10.002;2023-02-04T01:43:07;8.60;1.00
21522;DHT22;10922;45.572;10.002;2023-02-04T01:45:33;8.50;1.00
21522;DHT22;10922;45.572;10.002;2023-02-04T01:48:03;8.50;1.00
21522;DHT22;10922;45.572;10.002;2023-02-04T01:50:29;8.60;1.00
21522;DHT22;10922;45.572;10.002;2023-02-04T01:52:55;8.40;1.00
21522;DHT22;10922;45.572;10.002;2023-02-04T01:55:25;8.30;1.00
21522;DHT22;10922;45.572;10.002;2023-02-04T01:57:51;8.30;1.00
21522;DHT22;10922;45.572;10.002;2023-02-04T02:00:28;8.30;1.00
21522;DHT22;10922;45.572;10.002;2023-02-04T02:02:56;8.20;1.00
21522;DHT22;10922;45.572;10.002;2023-02-04T02:05:30;8.10;1.00
21522;DHT22;10922;45.572;10.002;2023-02-04T02:07:58;7.90;1.00
21522;DHT22;10922;45.572;10.002;2023-02-04T02:10:25;8.00;1.00
21522;DHT22;10922;45.572;10.002;2023-02-04T02:12:55;8.40;1.00
21522;DHT22;10922;45.572;10.002;2023-02-04T02:15:23;8.20;1.00
21522;DHT22;10922;45.572;10.002;2023-02-04T02:17:53;8.20;1.00
21522;DHT22;10922;45.572;10.002;2023-02-04T02:20:21;7.60;1.00
21522;DHT22;10922;45.572;10.002;2023-02-04T02:25:38;7.80;1.00
21522;DHT22;10922;45.572;10.002;2023-02-04T02:28:09;7.60;1.00
21522;DHT22;10922;45.572;10.002;2023-02-04T02:30:35;8.00;1.00
21522;DHT22;10922;45.572;10.002;2023-02-04T02:33:01;7.90;1.00
21522;DHT22;10922;45.572;10.002;2023-02-04T02:35:27;8.10;1.00
21522;DHT22;10922;45.572;10.002;2023-02-04T02:37:53;8.10;1.00
21522;DHT22;10922;45.572;10.002;2023-02-04T02:40:19;8.00;1.00
21522;DHT22;10922;45.572;10.002;2023-02-04T02:42:47;7.90;1.00
21522;DHT22;10922;45.572;10.002;2023-02-04T02:45:26;8.10;1.00
21522;DHT22;10922;45.572;10.002;2023-02-04T02:47:53;8.20;1.00
21522;DHT22;10922;45.572;10.002;2023-02-04T02:50:23;7.70;1.00
21522;DHT22;10922;45.572;10.002;2023-02-04T02:52:50;7.60;1.00
21522;DHT22;10922;45.572;10.002;2023-02-04T02:55:18;7.60;1.00
21522;DHT22;10922;45.572;10.002;2023-02-04T02:57:45;7.60;1.00
21522;DHT22;10922;45.572;10.002;2023-02-04T03:00:25;7.30;1.00
21522;DHT22;10922;45.572;10.002;2023-02-04T03:03:00;7.20;1.00
21522;DHT22;10922;45.572;10.002;2023-02-04T03:05:29;7.80;1.00
21522;DHT22;10922;45.572;10.002;2023-02-04T03:07:56;7.50;1.00
21522;DHT22;10922;45.572;10.002;2023-02-04T03:10:22;7.70;1.00
21522;DHT22;10922;45.572;10.002;2023-02-04T03:12:47;7.50;1.00
21522;DHT22;10922;45.572;10.002;2023-02-04T03:15:13;6.90;1.00
21522;DHT22;10922;45.572;10.002;2023-02-04T03:17:40;7.30;1.00
21522;DHT22;10922;45.572;10.002;2023-02-04T03:20:07;7.60;1.00
21522;DHT22;10922;45.572;10.002;2023-02-04T03:22:33;7.80;1.00
21522;DHT22;10922;45.572;10.002;2023-02-04T03:24:59;7.70;1.00
21522;DHT22;10922;45.572;10.002;2023-02-04T03:27:25;7.90;1.00
21522;DHT22;10922;45.572;10.002;2023-02-04T03:29:51;8.00;1.00
21522;DHT22;10922;45.572;10.002;2023-02-04T03:32:16;7.50;1.00
21522;DHT22;10922;45.572;10.002;2023-02-04T03:34:42;7.70;1.00
21522;DHT22;10922;45.572;10.002;2023-02-04T03:37:08;7.50;1.00
21522;DHT22;10922;45.572;10.002;2023-02-04T03:39:34;7.00;1.00
21522;DHT22;10922;45.572;10.002;2023-02-04T03:41:59;7.40;1.00
21522;DHT22;10922;45.572;10.002;2023-02-04T03:44:25;7.30;1.00
21522;DHT22;10922;45.572;10.002;2023-02-04T03:46:52;7.30;1.00
21522;DHT22;10922;45.572;10.002;2023-02-04T03:49:20;7.50;1.00
21522;DHT22;10922;45.572;10.002;2023-02-04T03:51:46;7.70;1.00
21522;DHT22;10922;45.572;10.002;2023-02-04T03:54:12;7.70;1.00
21522;DHT22;10922;45.572;10.002;2023-02-04T03:56:37;7.40;1.00
21522;DHT22;10922;45.572;10.002;2023-02-04T03:59:03;7.40;1.00
21522;DHT22;10922;45.572;10.002;2023-02-04T04:01:29;7.60;1.00
21522;DHT22;10922;45.572;10.002;2023-02-04T04:03:54;7.80;1.00
21522;DHT22;10922;45.572;10.002;2023-02-04T04:06:20;7.90;1.00
21522;DHT22;10922;45.572;10.002;2023-02-04T04:08:46;7.60;1.00
21522;DHT22;10922;45.572;10.002;2023-02-04T04:11:11;7.70;1.00
21522;DHT22;10922;45.572;10.002;2023-02-04T04:13:37;7.80;1.00
21522;DHT22;10922;45.572;10.002;2023-02-04T04:16:03;7.90;1.00
21522;DHT22;10922;45.572;10.002;2023-02-04T04:18:29;8.00;1.00
21522;DHT22;10922;45.572;10.002;2023-02-04T04:20:57;7.80;1.00
21522;DHT22;10922;45.572;10.002;2023-02-04T04:23:22;7.40;1.00
21522;DHT22;10922;45.572;10.002;2023-02-04T04:25:48;7.20;1.00
21522;DHT22;10922;45.572;10.002;2023-02-04T04:28:14;7.20;1.00
21522;DHT22;10922;45.572;10.002;2023-02-04T04:30:39;7.40;1.00
21522;DHT22;10922;45.572;10.002;2023-02-04T04:33:05;7.10;1.00
21522;DHT22;10922;45.572;10.002;2023-02-04T04:35:31;7.00;1.00
21522;DHT22;10922;45.572;10.002;2023-02-04T04:37:56;7.30;1.00
21522;DHT22;10922;45.572;10.002;2023-02-04T04:40:22;7.40;1.00
21522;DHT22;10922;45.572;10.002;2023-02-04T04:42:48;7.50;1.00
21522;DHT22;10922;45.572;10.002;2023-02-04T04:45:13;7.40;1.00
21522;DHT22;10922;45.572;10.002;2023-02-04T04:47:39;7.40;1.00
21522;DHT22;10922;45.572;10.002;2023-02-04T04:50:05;7.00;1.00
21522;DHT22;10922;45.572;10.002;2023-02-04T04:52:31;7.10;1.00
21522;DHT22;10922;45.572;10.002;2023-02-04T04:54:56;6.90;1.00
21522;DHT22;10922;45.572;10.002;2023-02-04T04:57:22;6.80;1.00
21522;DHT22;10922;45.572;10.002;2023-02-04T04:59:47;6.90;1.00
21522;DHT22;10922;45.572;10.002;2023-02-04T05:02:13;7.00;1.00
21522;DHT22;10922;45.572;10.002;2023-02-04T05:04:39;6.90;1.00
21522;DHT22;10922;45.572;10.002;2023-02-04T05:07:04;6.80;1.00
21522;DHT22;10922;45.572;10.002;2023-02-04T05:09:30;7.20;1.00
21522;DHT22;10922;45.572;10.002;2023-02-04T05:11:55;7.10;1.00
21522;DHT22;10922;45.572;10.002;2023-02-04T05:14:21;6.60;1.00
21522;DHT22;10922;45.572;10.002;2023-02-04T05:16:47;7.00;1.00
21522;DHT22;10922;45.572;10.002;2023-02-04T05:19:12;7.20;1.00
21522;DHT22;10922;45.572;10.002;2023-02-04T05:21:38;7.20;1.00
21522;DHT22;10922;45.572;10.002;2023-02-04T05:24:04;7.30;1.00
21522;DHT22;10922;45.572;10.002;2023-02-04T05:26:31;7.10;1.00
21522;DHT22;10922;45.572;10.002;2023-02-04T05:28:58;7.50;1.00
21522;DHT22;10922;45.572;10.002;2023-02-04T05:31:26;7.50;1.00
21522;DHT22;10922;45.572;10.002;2023-02-04T05:33:52;7.30;1.00
21522;DHT22;10922;45.572;10.002;2023-02-04T05:36:19;6.90;1.00
21522;DHT22;10922;45.572;10.002;2023-02-04T05:38:44;7.00;1.00
21522;DHT22;10922;45.572;10.002;2023-02-04T05:41:10;7.40;1.00
21522;DHT22;10922;45.572;10.002;2023-02-04T05:43:36;7.20;1.00
21522;DHT22;10922;45.572;10.002;2023-02-04T05:46:01;6.90;1.00
21522;DHT22;10922;45.572;10.002;2023-02-04T05:48:27;7.10;1.00
21522;DHT22;10922;45.572;10.002;2023-02-04T05:50:53;7.10;1.00
21522;DHT22;10922;45.572;10.002;2023-02-04T05:53:18;6.60;1.00
21522;DHT22;10922;45.572;10.002;2023-02-04T05:55:44;6.70;1.00
21522;DHT22;10922;45.572;10.002;2023-02-04T05:58:10;7.00;1.00
21522;DHT22;10922;45.572;10.002;2023-02-04T06:00:35;7.00;1.00
21522;DHT22;10922;45.572;10.002;2023-02-04T06:03:01;6.90;1.00
21522;DHT22;10922;45.572;10.002;2023-02-04T06:05:26;6.80;1.00
21522;DHT22;10922;45.572;10.002;2023-02-04T06:07:52;6.70;1.00
21522;DHT22;10922;45.572;10.002;2023-02-04T06:10:18;6.80;1.00
21522;DHT22;10922;45.572;10.002;2023-02-04T06:12:46;7.00;1.00
21522;DHT22;10922;45.572;10.002;2023-02-04T06:15:14;7.10;1.00
21522;DHT22;10922;45.572;10.002;2023-02-04T06:17:40;7.00;1.00
21522;DHT22;10922;45.572;10.002;2023-02-04T06:20:07;6.90;1.00
21522;DHT22;10922;45.572;10.002;2023-02-04T06:22:33;6.70;1.00
21522;DHT22;10922;45.572;10.002;2023-02-04T06:24:58;6.70;1.00
21522;DHT22;10922;45.572;10.002;2023-02-04T06:27:24;7.00;1.00
21522;DHT22;10922;45.572;10.002;2023-02-04T06:29:50;7.10;1.00
21522;DHT22;10922;45.572;10.002;2023-02-04T06:32:17;6.90;1.00
21522;DHT22;10922;45.572;10.002;2023-02-04T06:34:43;6.80;1.00
21522;DHT22;10922;45.572;10.002;2023-02-04T06:37:09;6.90;1.00
21522;DHT22;10922;45.572;10.002;2023-02-04T06:39:34;6.70;1.00
21522;DHT22;10922;45.572;10.002;2023-02-04T06:42:00;6.90;1.00
21522;DHT22;10922;45.572;10.002;2023-02-04T06:44:26;7.00;1.00
21522;DHT22;10922;45.572;10.002;2023-02-04T06:46:52;6.70;1.00
21522;DHT22;10922;45.572;10.002;2023-02-04T06:49:18;6.60;1.00
21522;DHT22;10922;45.572;10.002;2023-02-04T06:51:43;6.70;1.00
21522;DHT22;10922;45.572;10.002;2023-02-04T06:54:09;6.60;1.00
21522;DHT22;10922;45.572;10.002;2023-02-04T06:56:35;6.60;1.00
21522;DHT22;10922;45.572;10.002;2023-02-04T06:59:01;6.60;1.00
21522;DHT22;10922;45.572;10.002;2023-02-04T07:01:26;6.60;1.00
21522;DHT22;10922;45.572;10.002;2023-02-04T07:03:52;6.70;1.00
21522;DHT22;10922;45.572;10.002;2023-02-04T07:06:17;7.10;1.00
21522;DHT22;10922;45.572;10.002;2023-02-04T07:08:43;7.30;1.00
21522;DHT22;10922;45.572;10.002;2023-02-04T07:11:09;7.20;1.00
21522;DHT22;10922;45.572;10.002;2023-02-04T07:13:34;7.20;1.00
21522;DHT22;10922;45.572;10.002;2023-02-04T07:16:00;7.10;1.00
21522;DHT22;10922;45.572;10.002;2023-02-04T07:18:25;7.00;1.00
21522;DHT22;10922;45.572;10.002;2023-02-04T07:20:53;7.40;1.00
21522;DHT22;10922;45.572;10.002;2023-02-04T07:23:19;7.40;1.00
21522;DHT22;10922;45.572;10.002;2023-02-04T07:25:46;7.30;1.00
21522;DHT22;10922;45.572;10.002;2023-02-04T07:28:14;7.40;1.00
21522;DHT22;10922;45.572;10.002;2023-02-04T07:30:40;7.40;1.00
21522;DHT22;10922;45.572;10.002;2023-02-04T07:33:06;7.50;1.00
21522;DHT22;10922;45.572;10.002;2023-02-04T07:35:31;7.30;1.00
21522;DHT22;10922;45.572;10.002;2023-02-04T07:37:57;7.40;1.00
21522;DHT22;10922;45.572;10.002;2023-02-04T07:40:22;7.30;1.00
21522;DHT22;10922;45.572;10.002;2023-02-04T07:42:48;7.50;1.00
21522;DHT22;10922;45.572;10.002;2023-02-04T07:45:14;7.00;1.00
21522;DHT22;10922;45.572;10.002;2023-02-04T07:47:40;7.20;1.00
21522;DHT22;10922;45.572;10.002;2023-02-04T07:50:14;7.40;1.00
21522;DHT22;10922;45.572;10.002;2023-02-04T07:53:28;7.60;1.00
21522;DHT22;10922;45.572;10.002;2023-02-04T07:56:00;7.90;1.00
21522;DHT22;10922;45.572;10.002;2023-02-04T07:58:26;7.80;1.00
21522;DHT22;10922;45.572;10.002;2023-02-04T08:00:51;7.90;1.00
21522;DHT22;10922;45.572;10.002;2023-02-04T08:03:17;7.70;1.00
21522;DHT22;10922;45.572;10.002;2023-02-04T08:05:43;8.00;1.00
21522;DHT22;10922;45.572;10.002;2023-02-04T08:08:09;8.00;1.00
21522;DHT22;10922;45.572;10.002;2023-02-04T08:10:37;8.30;1.00
21522;DHT22;10922;45.572;10.002;2023-02-04T08:13:03;8.50;1.00
21522;DHT22;10922;45.572;10.002;2023-02-04T08:15:29;8.40;1.00
21522;DHT22;10922;45.572;10.002;2023-02-04T08:17:54;8.50;1.00
21522;DHT22;10922;45.572;10.002;2023-02-04T08:20:20;8.50;1.00
21522;DHT22;10922;45.572;10.002;2023-02-04T08:22:46;8.70;1.00
21522;DHT22;10922;45.572;10.002;2023-02-04T08:25:13;8.70;1.00
21522;DHT22;10922;45.572;10.002;2023-02-04T08:27:39;8.80;1.00
21522;DHT22;10922;45.572;10.002;2023-02-04T08:30:05;8.80;1.00
21522;DHT22;10922;45.572;10.002;2023-02-04T08:32:31;8.90;1.00
21522;DHT22;10922;45.572;10.002;2023-02-04T08:34:57;9.10;1.00
21522;DHT22;10922;45.572;10.002;2023-02-04T08:37:23;9.30;1.00
21522;DHT22;10922;45.572;10.002;2023-02-04T08:39:49;9.20;1.00
21522;DHT22;10922;45.572;10.002;2023-02-04T08:42:15;9.30;1.00
21522;DHT22;10922;45.572;10.002;2023-02-04T08:44:41;9.50;1.00
21522;DHT22;10922;45.572;10.002;2023-02-04T08:47:07;9.50;1.00
21522;DHT22;10922;45.572;10.002;2023-02-04T08:49:34;9.70;1.00
21522;DHT22;10922;45.572;10.002;2023-02-04T08:52:00;9.80;1.00
21522;DHT22;10922;45.572;10.002;2023-02-04T08:54:27;9.90;1.00
21522;DHT22;10922;45.572;10.002;2023-02-04T08:56:53;10.00;1.00
21522;DHT22;10922;45.572;10.002;2023-02-04T08:59:19;10.10;1.00
21522;DHT22;10922;45.572;10.002;2023-02-04T09:01:46;10.10;1.00
21522;DHT22;10922;45.572;10.002;2023-02-04T09:04:14;10.20;1.00
21522;DHT22;10922;45.572;10.002;2023-02-04T09:06:39;10.40;1.00
21522;DHT22;10922;45.572;10.002;2023-02-04T09:09:05;10.40;1.00
21522;DHT22;10922;45.572;10.002;2023-02-04T09:11:31;10.50;1.00
21522;DHT22;10922;45.572;10.002;2023-02-04T09:13:56;10.60;1.00
21522;DHT22;10922;45.572;10.002;2023-02-04T09:16:22;10.70;1.00
21522;DHT22;10922;45.572;10.002;2023-02-04T09:18:48;10.80;1.00
21522;DHT22;10922;45.572;10.002;2023-02-04T09:21:14;10.80;1.00
21522;DHT22;10922;45.572;10.002;2023-02-04T09:23:40;10.90;1.00
21522;DHT22;10922;45.572;10.002;2023-02-04T09:26:12;11.00;1.00
21522;DHT22;10922;45.572;10.002;2023-02-04T09:28:37;11.00;1.00
21522;DHT22;10922;45.572;10.002;2023-02-04T09:31:03;11.10;1.00
21522;DHT22;10922;45.572;10.002;2023-02-04T09:33:31;11.20;1.00
21522;DHT22;10922;45.572;10.002;2023-02-04T09:35:57;11.20;1.00
21522;DHT22;10922;45.572;10.002;2023-02-04T09:38:22;11.30;1.00
21522;DHT22;10922;45.572;10.002;2023-02-04T09:40:54;11.30;1.00
21522;DHT22;10922;45.572;10.002;2023-02-04T09:43:25;11.40;1.00
21522;DHT22;10922;45.572;10.002;2023-02-04T09:45:52;11.40;1.00
21522;DHT22;10922;45.572;10.002;2023-02-04T09:48:20;11.50;1.00
21522;DHT22;10922;45.572;10.002;2023-02-04T09:50:51;11.60;1.00
21522;DHT22;10922;45.572;10.002;2023-02-04T09:56:53;11.70;1.00
21522;DHT22;10922;45.572;10.002;2023-02-04T09:59:21;11.90;1.00
21522;DHT22;10922;45.572;10.002;2023-02-04T10:02:20;11.90;1.00
21522;DHT22;10922;45.572;10.002;2023-02-04T10:04:47;12.10;1.00
21522;DHT22;10922;45.572;10.002;2023-02-04T10:07:20;12.10;1.00
21522;DHT22;10922;45.572;10.002;2023-02-04T10:13:35;12.40;1.00
21522;DHT22;10922;45.572;10.002;2023-02-04T10:16:05;12.50;1.00
21522;DHT22;10922;45.572;10.002;2023-02-04T10:18:35;12.60;1.00
21522;DHT22;10922;45.572;10.002;2023-02-04T10:23:46;12.80;1.00
21522;DHT22;10922;45.572;10.002;2023-02-04T10:26:13;12.80;1.00
21522;DHT22;10922;45.572;10.002;2023-02-04T10:28:40;12.80;1.00
21522;DHT22;10922;45.572;10.002;2023-02-04T10:38:28;13.20;1.00
21522;DHT22;10922;45.572;10.002;2023-02-04T10:41:04;13.20;1.00
21522;DHT22;10922;45.572;10.002;2023-02-04T10:43:35;13.30;1.00
21522;DHT22;10922;45.572;10.002;2023-02-04T10:46:02;13.40;1.00
21522;DHT22;10922;45.572;10.002;2023-02-04T10:48:28;13.50;99.90
21522;DHT22;10922;45.572;10.002;2023-02-04T10:50:55;13.50;99.90
21522;DHT22;10922;45.572;10.002;2023-02-04T10:53:23;13.60;99.90
21522;DHT22;10922;45.572;10.002;2023-02-04T10:56:26;13.40;99.90
21522;DHT22;10922;45.572;10.002;2023-02-04T10:58:52;13.60;99.90
21522;DHT22;10922;45.572;10.002;2023-02-04T11:01:17;13.70;99.90
21522;DHT22;10922;45.572;10.002;2023-02-04T11:03:43;13.80;99.90
21522;DHT22;10922;45.572;10.002;2023-02-04T11:06:11;13.80;99.90
21522;DHT22;10922;45.572;10.002;2023-02-04T11:08:38;13.60;99.90
21522;DHT22;10922;45.572;10.002;2023-02-04T11:11:05;13.60;99.90
21522;DHT22;10922;45.572;10.002;2023-02-04T11:16:24;13.60;99.90
21522;DHT22;10922;45.572;10.002;2023-02-04T11:18:56;13.80;99.90
21522;DHT22;10922;45.572;10.002;2023-02-04T11:24:02;13.80;99.90
21522;DHT22;10922;45.572;10.002;2023-02-04T11:26:39;13.80;99.90
21522;DHT22;10922;45.572;10.002;2023-02-04T11:38:00;14.00;99.90
21522;DHT22;10922;45.572;10.002;2023-02-04T11:42:59;13.90;99.90
21522;DHT22;10922;45.572;10.002;2023-02-04T11:47:59;14.10;99.90
21522;DHT22;10922;45.572;10.002;2023-02-04T11:50:31;14.00;99.90
21522;DHT22;10922;45.572;10.002;2023-02-04T11:52:59;14.20;99.90
21522;DHT22;10922;45.572;10.002;2023-02-04T11:55:28;14.20;99.90
21522;DHT22;10922;45.572;10.002;2023-02-04T11:57:55;14.20;99.90
21522;DHT22;10922;45.572;10.002;2023-02-04T12:00:31;14.40;99.90
21522;DHT22;10922;45.572;10.002;2023-02-04T12:03:03;14.40;99.90
21522;DHT22;10922;45.572;10.002;2023-02-04T12:05:44;14.50;99.90
21522;DHT22;10922;45.572;10.002;2023-02-04T12:08:32;14.60;99.90
21522;DHT22;10922;45.572;10.002;2023-02-04T12:11:11;14.50;99.90
21522;DHT22;10922;45.572;10.002;2023-02-04T12:13:52;14.50;99.90
21522;DHT22;10922;45.572;10.002;2023-02-04T12:16:19;14.80;99.90
21522;DHT22;10922;45.572;10.002;2023-02-04T12:18:45;14.80;99.90
21522;DHT22;10922;45.572;10.002;2023-02-04T12:21:12;15.00;99.90
21522;DHT22;10922;45.572;10.002;2023-02-04T12:23:39;14.90;99.90
21522;DHT22;10922;45.572;10.002;2023-02-04T12:26:10;15.10;99.90
21522;DHT22;10922;45.572;10.002;2023-02-04T12:28:36;15.10;99.90
21522;DHT22;10922;45.572;10.002;2023-02-04T12:31:01;15.20;99.90
21522;DHT22;10922;45.572;10.002;2023-02-04T12:33:27;16.10;99.90
21522;DHT22;10922;45.572;10.002;2023-02-04T12:35:53;19.90;1.00
21522;DHT22;10922;45.572;10.002;2023-02-04T12:38:19;21.40;99.90
21522;DHT22;10922;45.572;10.002;2023-02-04T12:40:45;22.60;99.90
21522;DHT22;10922;45.572;10.002;2023-02-04T12:43:11;23.80;99.90
21522;DHT22;10922;45.572;10.002;2023-02-04T12:45:36;23.70;99.90
21522;DHT22;10922;45.572;10.002;2023-02-04T12:48:04;23.00;99.90
21522;DHT22;10922;45.572;10.002;2023-02-04T12:50:30;23.20;99.90
21522;DHT22;10922;45.572;10.002;2023-02-04T12:52:57;24.50;99.90
21522;DHT22;10922;45.572;10.002;2023-02-04T12:55:25;23.90;99.90
21522;DHT22;10922;45.572;10.002;2023-02-04T12:57:52;23.90;99.90
21522;DHT22;10922;45.572;10.002;2023-02-04T13:00:20;23.20;99.90
21522;DHT22;10922;45.572;10.002;2023-02-04T13:02:48;23.40;99.90
21522;DHT22;10922;45.572;10.002;2023-02-04T13:05:15;23.30;99.90
21522;DHT22;10922;45.572;10.002;2023-02-04T13:07:41;23.80;99.90
21522;DHT22;10922;45.572;10.002;2023-02-04T13:10:11;23.80;99.90
21522;DHT22;10922;45.572;10.002;2023-02-04T13:12:37;22.80;99.90
21522;DHT22;10922;45.572;10.002;2023-02-04T13:15:04;22.60;99.90
21522;DHT22;10922;45.572;10.002;2023-02-04T13:17:30;21.70;99.90
21522;DHT22;10922;45.572;10.002;2023-02-04T13:19:56;21.40;99.90
21522;DHT22;10922;45.572;10.002;2023-02-04T13:22:22;21.00;99.90
21522;DHT22;10922;45.572;10.002;2023-02-04T13:24:49;21.00;99.90
21522;DHT22;10922;45.572;10.002;2023-02-04T13:27:26;20.40;99.90
21522;DHT22;10922;45.572;10.002;2023-02-04T13:46:52;20.70;99.90
21522;DHT22;10922;45.572;10.002;2023-02-04T13:49:18;20.10;99.90
21522;DHT22;10922;45.572;10.002;2023-02-04T14:06:27;21.80;99.90
21522;DHT22;10922;45.572;10.002;2023-02-04T14:15:33;21.10;99.90
21522;DHT22;10922;45.572;10.002;2023-02-04T14:21:21;21.10;99.90
21522;DHT22;10922;45.572;10.002;2023-02-04T14:34:12;21.60;99.90
21522;DHT22;10922;45.572;10.002;2023-02-04T14:36:38;21.60;99.90
21522;DHT22;10922;45.572;10.002;2023-02-04T14:39:04;21.50;99.90
21522;DHT22;10922;45.572;10.002;2023-02-04T14:41:29;20.60;99.90
21522;DHT22;10922;45.572;10.002;2023-02-04T14:43:56;19.80;99.90
21522;DHT22;10922;45.572;10.002;2023-02-04T14:46:21;20.00;99.90
21522;DHT22;10922;45.572;10.002;2023-02-04T14:48:47;19.30;99.90
21522;DHT22;10922;45.572;10.002;2023-02-04T14:51:16;19.70;99.90
21522;DHT22;10922;45.572;10.002;2023-02-04T14:53:42;19.60;99.90
21522;DHT22;10922;45.572;10.002;2023-02-04T14:56:08;20.10;99.90
21522;DHT22;10922;45.572;10.002;2023-02-04T14:58:33;19.90;99.90
21522;DHT22;10922;45.572;10.002;2023-02-04T15:01:13;20.30;99.90
21522;DHT22;10922;45.572;10.002;2023-02-04T15:03:39;20.30;99.90
21522;DHT22;10922;45.572;10.002;2023-02-04T15:06:04;20.50;99.90
21522;DHT22;10922;45.572;10.002;2023-02-04T15:08:30;20.50;99.90
21522;DHT22;10922;45.572;10.002;2023-02-04T15:28:16;20.70;99.90
21522;DHT22;10922;45.572;10.002;2023-02-04T16:24:16;17.00;99.90
21522;DHT22;10922;45.572;10.002;2023-02-04T16:26:43;17.20;99.90
21522;DHT22;10922;45.572;10.002;2023-02-04T16:29:09;16.70;99.90
21522;DHT22;10922;45.572;10.002;2023-02-04T16:31:35;16.10;99.90
21522;DHT22;10922;45.572;10.002;2023-02-04T16:34:00;15.80;99.90
21522;DHT22;10922;45.572;10.002;2023-02-04T16:36:26;15.50;99.90
21522;DHT22;10922;45.572;10.002;2023-02-04T16:38:55;15.20;99.90
21522;DHT22;10922;45.572;10.002;2023-02-04T16:41:23;14.90;99.90
21522;DHT22;10922;45.572;10.002;2023-02-04T16:43:48;14.70;99.90
21522;DHT22;10922;45.572;10.002;2023-02-04T16:46:15;14.90;99.90
21522;DHT22;10922;45.572;10.002;2023-02-04T16:48:42;14.20;99.90
21522;DHT22;10922;45.572;10.002;2023-02-04T16:51:08;14.50;99.90
21522;DHT22;10922;45.572;10.002;2023-02-04T16:53:33;14.10;99.90
21522;DHT22;10922;45.572;10.002;2023-02-04T16:55:59;14.30;99.90
21522;DHT22;10922;45.572;10.002;2023-02-04T16:58:29;14.60;99.90
21522;DHT22;10922;45.572;10.002;2023-02-04T17:00:55;14.40;99.90
21522;DHT22;10922;45.572;10.002;2023-02-04T17:03:22;14.30;99.90
21522;DHT22;10922;45.572;10.002;2023-02-04T17:05:47;13.90;99.90
21522;DHT22;10922;45.572;10.002;2023-02-04T17:08:13;13.50;99.90
21522;DHT22;10922;45.572;10.002;2023-02-04T17:10:40;14.20;99.90
21522;DHT22;10922;45.572;10.002;2023-02-04T17:13:24;14.30;99.90
21522;DHT22;10922;45.572;10.002;2023-02-04T17:15:49;14.30;99.90
21522;DHT22;10922;45.572;10.002;2023-02-04T17:18:15;14.30;99.90
21522;DHT22;10922;45.572;10.002;2023-02-04T17:20:44;14.00;99.90
21522;DHT22;10922;45.572;10.002;2023-02-04T17:23:10;13.90;99.90
21522;DHT22;10922;45.572;10.002;2023-02-04T17:25:46;13.90;99.90
21522;DHT22;10922;45.572;10.002;2023-02-04T17:28:13;13.90;99.90
21522;DHT22;10922;45.572;10.002;2023-02-04T17:30:47;13.90;99.90
21522;DHT22;10922;45.572;10.002;2023-02-04T17:33:13;13.80;99.90
21522;DHT22;10922;45.572;10.002;2023-02-04T17:35:39;13.70;99.90
21522;DHT22;10922;45.572;10.002;2023-02-04T17:38:05;13.70;99.90
21522;DHT22;10922;45.572;10.002;2023-02-04T17:40:30;13.80;99.90
21522;DHT22;10922;45.572;10.002;2023-02-04T17:42:56;13.60;99.90
21522;DHT22;10922;45.572;10.002;2023-02-04T17:45:22;13.30;99.90
21522;DHT22;10922;45.572;10.002;2023-02-04T17:47:49;13.20;99.90
21522;DHT22;10922;45.572;10.002;2023-02-04T17:50:14;13.10;99.90
21522;DHT22;10922;45.572;10.002;2023-02-04T17:52:40;13.10;99.90
21522;DHT22;10922;45.572;10.002;2023-02-04T17:55:14;13.10;99.90
21522;DHT22;10922;45.572;10.002;2023-02-04T17:57:41;12.80;99.90
21522;DHT22;10922;45.572;10.002;2023-02-04T18:00:15;12.60;99.90
21522;DHT22;10922;45.572;10.002;2023-02-04T18:02:43;12.80;99.90
21522;DHT22;10922;45.572;10.002;2023-02-04T18:10:48;12.60;99.90
21522;DHT22;10922;45.572;10.002;2023-02-04T18:13:31;12.40;99.90
21522;DHT22;10922;45.572;10.002;2023-02-04T18:16:00;12.20;99.90
21522;DHT22;10922;45.572;10.002;2023-02-04T18:18:34;11.90;99.90
21522;DHT22;10922;45.572;10.002;2023-02-04T18:21:25;12.00;99.90
21522;DHT22;10922;45.572;10.002;2023-02-04T18:24:14;11.80;99.90